Time;durP1;ratioP1;P1;durP2;ratioP2;P2;SDS_P1;SDS_P2;PMS_P1;PMS_P2;Temp;Humidity;BMP_temperature;BMP_pressure;BME280_temperature;BME280_humidity;BME280_pressure;Samples;Min_cycle;Max_cycle;Signal;HPM_P1;HPM_P2
2022/01/04 00:02:06;;;;;;;29.73;5.93;;;8.30;99.90;;;;;;4998157;28;20075;-83
2022/01/04 00:04:32;;;;;;;26.75;5.93;;;8.30;99.90;;;;;;4999599;28;20097;-82
2022/01/04 00:06:58;;;;;;;27.90;6.40;;;8.30;99.90;;;;;;4964933;28;20430;-82
2022/01/04 00:09:24;;;;;;;32.38;7.57;;;8.30;99.90;;;;;;4998040;28;20038;-82
2022/01/04 00:14:15;;;;;;;23.05;5.50;;;8.30;99.90;;;;;;4997161;28;20112;-83
2022/01/04 00:16:41;;;;;;;24.98;6.35;;;8.30;99.90;;;;;;4998387;28;20054;-83
2022/01/04 00:19:07;;;;;;;30.35;5.55;;;8.30;99.90;;;;;;4981843;28;20101;-83
2022/01/04 00:21:33;;;;;;;31.80;6.65;;;8.50;99.90;;;;;;4998208;28;20077;-82
2022/01/04 00:23:58;;;;;;;30.20;6.63;;;9.40;99.90;;;;;;4998567;28;20042;-83
2022/01/04 00:26:24;;;;;;;30.30;6.97;;;8.30;99.90;;;;;;4998705;28;20050;-82
2022/01/04 00:28:50;;;;;;;22.73;6.32;;;8.30;99.90;;;;;;4964953;28;20058;-83
2022/01/04 00:31:16;;;;;;;36.28;6.90;;;8.30;99.90;;;;;;4998471;28;20073;-83
2022/01/04 00:33:41;;;;;;;19.08;6.45;;;8.30;99.90;;;;;;4980851;28;20066;-82
2022/01/04 00:36:07;;;;;;;25.05;5.10;;;8.30;99.90;;;;;;4980202;28;20078;-82
2022/01/04 00:38:33;;;;;;;21.55;5.82;;;8.30;99.90;;;;;;4997770;28;20050;-82
2022/01/04 00:40:58;;;;;;;32.30;5.13;;;8.20;99.90;;;;;;4996974;28;20046;-83
2022/01/04 00:43:24;;;;;;;30.25;5.88;;;8.20;99.90;;;;;;4998839;28;20049;-83
2022/01/04 00:45:52;;;;;;;23.70;5.75;;;8.20;99.90;;;;;;4997576;28;20050;-83
2022/01/04 00:50:43;;;;;;;24.38;5.78;;;8.10;99.90;;;;;;4980753;28;20054;-83
2022/01/04 00:53:09;;;;;;;23.88;5.05;;;8.10;99.90;;;;;;4997693;28;20358;-83
2022/01/04 00:55:35;;;;;;;18.83;4.68;;;8.00;99.90;;;;;;4997318;28;20042;-83
2022/01/04 00:58:01;;;;;;;28.63;5.47;;;8.10;99.90;;;;;;4998717;28;20106;-83
2022/01/04 01:00:27;;;;;;;30.75;5.80;;;8.10;99.90;;;;;;4998109;28;20508;-83
2022/01/04 01:02:53;;;;;;;27.60;7.30;;;8.00;99.90;;;;;;4998150;28;20058;-82
2022/01/04 01:05:22;;;;;;;27.38;6.38;;;8.00;99.90;;;;;;5002641;28;20069;-83
2022/01/04 01:07:48;;;;;;;29.00;6.90;;;8.10;99.90;;;;;;5002755;28;20042;-82
2022/01/04 01:12:58;;;;;;;24.27;6.65;;;7.90;99.90;;;;;;4979548;28;20066;-82
2022/01/04 01:15:24;;;;;;;28.48;7.70;;;7.80;99.90;;;;;;4996960;28;20043;-83
2022/01/04 01:17:50;;;;;;;32.20;8.63;;;9.10;99.90;;;;;;4996787;28;20660;-83
2022/01/04 01:20:18;;;;;;;32.92;8.00;;;8.00;99.90;;;;;;4995752;28;20086;-83
2022/01/04 01:22:44;;;;;;;28.92;6.80;;;8.00;99.90;;;;;;4997805;28;20449;-81
2022/01/04 01:25:12;;;;;;;26.13;7.53;;;8.00;99.90;;;;;;4998162;28;20065;-82
2022/01/04 01:27:38;;;;;;;30.75;7.20;;;8.00;99.90;;;;;;4999240;28;20094;-83
2022/01/04 01:30:05;;;;;;;24.92;7.07;;;8.00;99.90;;;;;;4996774;28;20053;-83
2022/01/04 01:32:30;;;;;;;24.02;5.72;;;8.00;99.90;;;;;;4996233;28;20050;-83
2022/01/04 01:34:56;;;;;;;22.75;7.22;;;8.00;99.90;;;;;;4980227;28;20058;-83
2022/01/04 01:37:22;;;;;;;27.92;6.65;;;8.00;99.90;;;;;;4996730;28;20057;-83
2022/01/04 01:39:47;;;;;;;30.25;9.43;;;8.70;99.90;;;;;;4980042;28;20074;-83
2022/01/04 01:42:13;;;;;;;38.05;8.82;;;8.00;99.90;;;;;;4980722;28;20054;-82
2022/01/04 01:44:39;;;;;;;28.13;8.00;;;8.00;99.90;;;;;;4997057;28;20054;-83
2022/01/04 01:47:05;;;;;;;34.17;9.27;;;8.00;99.90;;;;;;4996556;28;20106;-83
2022/01/04 01:49:31;;;;;;;26.20;7.85;;;8.00;99.90;;;;;;5001482;28;20069;-83
2022/01/04 01:51:58;;;;;;;34.88;7.82;;;8.10;99.90;;;;;;4999620;28;20113;-84
2022/01/04 01:54:24;;;;;;;30.50;7.53;;;8.00;99.90;;;;;;4999439;28;20050;-83
2022/01/04 01:56:50;;;;;;;39.78;7.80;;;8.00;99.90;;;;;;5001439;28;20043;-83
2022/01/04 01:59:17;;;;;;;27.70;8.15;;;8.00;99.90;;;;;;5000618;28;20047;-83
2022/01/04 02:01:42;;;;;;;27.10;6.05;;;8.10;99.90;;;;;;4999703;28;20053;-83
2022/01/04 02:04:08;;;;;;;27.48;7.10;;;8.00;99.90;;;;;;4982086;28;20074;-83
2022/01/04 02:06:34;;;;;;;27.75;7.25;;;7.90;99.90;;;;;;4998158;28;20054;-83
2022/01/04 02:09:01;;;;;;;29.88;7.63;;;7.90;99.90;;;;;;4998970;28;20054;-83
2022/01/04 02:11:28;;;;;;;34.95;7.80;;;7.90;99.90;;;;;;5001325;28;20117;-83
2022/01/04 02:13:59;;;;;;;27.63;7.70;;;7.80;99.90;;;;;;5007089;28;20057;-83
2022/01/04 02:16:25;;;;;;;24.83;7.00;;;7.70;99.90;;;;;;5007980;28;20046;-83
2022/01/04 02:18:51;;;;;;;24.77;7.28;;;7.80;99.90;;;;;;5006232;28;20114;-82
2022/01/04 02:21:17;;;;;;;33.25;6.78;;;7.90;99.90;;;;;;5003371;28;20046;-83
2022/01/04 02:23:43;;;;;;;31.60;7.88;;;7.90;99.90;;;;;;5002109;28;20081;-83
2022/01/04 02:26:09;;;;;;;24.33;7.57;;;8.00;99.90;;;;;;5001894;28;20053;-83
2022/01/04 02:28:35;;;;;;;31.08;7.70;;;8.00;99.90;;;;;;5000953;28;20070;-83
2022/01/04 02:31:01;;;;;;;31.92;7.18;;;8.00;99.90;;;;;;4983138;28;20078;-83
2022/01/04 02:33:26;;;;;;;29.02;6.82;;;7.90;99.90;;;;;;5001498;28;20051;-83
2022/01/04 02:35:52;;;;;;;34.08;7.55;;;7.90;99.90;;;;;;5000279;28;20085;-83
2022/01/04 02:38:18;;;;;;;23.70;7.63;;;7.90;99.90;;;;;;4984427;28;20062;-82
2022/01/04 02:40:44;;;;;;;34.50;7.60;;;7.90;99.90;;;;;;4983272;28;20058;-83
2022/01/04 02:43:09;;;;;;;32.47;8.05;;;7.10;99.90;;;;;;4999582;28;20089;-83
2022/01/04 02:45:35;;;;;;;33.90;8.23;;;7.90;99.90;;;;;;4981991;28;20050;-83
2022/01/04 02:48:01;;;;;;;31.33;9.25;;;7.40;99.90;;;;;;4991379;28;20046;-83
2022/01/04 02:50:27;;;;;;;31.20;8.80;;;7.90;99.90;;;;;;4982614;28;20082;-83
2022/01/04 02:52:52;;;;;;;28.67;8.55;;;7.90;99.90;;;;;;4996826;28;20064;-83
2022/01/04 02:55:18;;;;;;;36.50;10.18;;;8.00;99.90;;;;;;4997293;28;20690;-83
2022/01/04 02:57:44;;;;;;;29.73;8.98;;;8.00;99.90;;;;;;4998252;28;20046;-83
2022/01/04 03:00:14;;;;;;;34.60;8.32;;;8.00;99.90;;;;;;4997662;28;20557;-83
2022/01/04 03:02:41;;;;;;;34.28;8.95;;;8.10;99.90;;;;;;4998746;28;20054;-82
2022/01/04 03:05:07;;;;;;;28.77;8.27;;;8.20;99.90;;;;;;4997849;28;20085;-83
2022/01/04 03:07:34;;;;;;;28.48;8.30;;;8.10;99.90;;;;;;4998264;28;20072;-83
2022/01/04 03:09:59;;;;;;;33.80;9.60;;;8.10;99.90;;;;;;4997590;28;20078;-83
2022/01/04 03:12:25;;;;;;;32.35;10.25;;;8.10;99.90;;;;;;4983768;28;20066;-82
2022/01/04 03:14:50;;;;;;;25.52;8.35;;;8.00;99.90;;;;;;5001895;28;20046;-82
2022/01/04 03:17:16;;;;;;;31.05;10.35;;;8.00;99.90;;;;;;4984528;28;20053;-83
2022/01/04 03:19:42;;;;;;;31.70;9.88;;;7.90;99.90;;;;;;5002932;28;20405;-83
2022/01/04 03:22:08;;;;;;;30.23;9.60;;;7.90;99.90;;;;;;5002394;28;20057;-83
2022/01/04 03:24:34;;;;;;;38.30;10.43;;;7.90;99.90;;;;;;5001390;28;20464;-83
2022/01/04 03:27:00;;;;;;;36.13;9.38;;;8.00;99.90;;;;;;4983171;28;20058;-83
2022/01/04 03:29:26;;;;;;;28.48;10.15;;;7.80;99.90;;;;;;4984156;28;20053;-83
2022/01/04 03:31:53;;;;;;;30.65;10.18;;;7.80;99.90;;;;;;5006946;28;20030;-82
2022/01/04 03:34:19;;;;;;;41.90;10.88;;;7.70;99.90;;;;;;5013113;28;20042;-82
2022/01/04 03:36:44;;;;;;;34.00;10.55;;;7.80;99.90;;;;;;5010493;28;20034;-83
2022/01/04 03:39:11;;;;;;;39.85;10.68;;;7.80;99.90;;;;;;5003326;28;20103;-83
2022/01/04 03:41:40;;;;;;;33.53;10.07;;;7.70;99.90;;;;;;5001584;28;20057;-83
2022/01/04 03:44:07;;;;;;;36.13;10.75;;;7.80;99.90;;;;;;5002226;28;20065;-83
2022/01/04 03:46:33;;;;;;;27.60;9.27;;;7.80;99.90;;;;;;4982503;28;20077;-82
2022/01/04 03:48:58;;;;;;;33.15;11.88;;;7.90;99.90;;;;;;5001375;28;20920;-83
2022/01/04 03:51:25;;;;;;;44.65;11.10;;;7.90;99.90;;;;;;5001884;28;20146;-83
2022/01/04 03:53:50;;;;;;;27.85;10.80;;;7.90;99.90;;;;;;4984004;28;20063;-83
2022/01/04 03:56:16;;;;;;;31.58;10.23;;;8.00;99.90;;;;;;5000753;28;20128;-83
2022/01/04 03:58:42;;;;;;;30.40;8.90;;;8.10;99.90;;;;;;5000291;28;20046;-83
2022/01/04 04:01:08;;;;;;;34.97;10.45;;;8.10;99.90;;;;;;4999271;28;20138;-84
2022/01/04 04:03:34;;;;;;;30.13;9.98;;;8.10;99.90;;;;;;4999543;28;20050;-83
2022/01/04 04:06:00;;;;;;;38.42;11.10;;;8.10;99.90;;;;;;4998362;28;20110;-83
2022/01/04 04:08:26;;;;;;;34.55;10.32;;;8.10;99.90;;;;;;5000688;28;20057;-83
2022/01/04 04:10:52;;;;;;;36.50;11.25;;;8.10;99.90;;;;;;4998798;28;20057;-83
2022/01/04 04:13:18;;;;;;;32.03;10.48;;;8.10;99.90;;;;;;4999861;28;20034;-83
2022/01/04 04:15:44;;;;;;;36.53;11.30;;;8.10;99.90;;;;;;4983256;28;20050;-82
2022/01/04 04:18:10;;;;;;;33.03;9.35;;;8.20;99.90;;;;;;4965894;28;20046;-82
2022/01/04 04:20:37;;;;;;;39.58;10.98;;;8.20;99.90;;;;;;4999929;28;20054;-82
2022/01/04 04:23:04;;;;;;;34.75;11.10;;;8.20;99.90;;;;;;5000809;28;20042;-83
2022/01/04 04:25:31;;;;;;;30.20;11.15;;;8.20;99.90;;;;;;4998327;28;20108;-83
2022/01/04 04:27:56;;;;;;;25.67;10.35;;;8.10;99.90;;;;;;4998445;28;20058;-83
2022/01/04 04:30:22;;;;;;;31.73;12.77;;;8.00;99.90;;;;;;4999601;28;20511;-83
2022/01/04 04:32:48;;;;;;;36.53;11.82;;;8.00;99.90;;;;;;4999594;28;20046;-83
2022/01/04 04:35:14;;;;;;;43.17;12.95;;;7.90;99.90;;;;;;4982728;28;20106;-82
2022/01/04 04:37:40;;;;;;;29.77;11.95;;;7.90;99.90;;;;;;4984167;28;20051;-83
2022/01/04 04:40:07;;;;;;;37.28;13.30;;;7.90;99.90;;;;;;4987230;28;20058;-83
2022/01/04 04:42:34;;;;;;;34.15;13.25;;;8.00;99.90;;;;;;4981778;28;20061;-82
2022/01/04 04:45:00;;;;;;;33.92;11.20;;;8.00;99.90;;;;;;4998481;28;20046;-82
2022/01/04 04:47:26;;;;;;;37.47;15.50;;;8.20;99.90;;;;;;4997949;28;20054;-81
2022/01/04 04:49:55;;;;;;;36.30;12.18;;;8.00;99.90;;;;;;4997957;28;20185;-82
2022/01/04 04:52:21;;;;;;;37.25;12.75;;;8.00;99.90;;;;;;4980950;28;20134;-82
2022/01/04 04:54:48;;;;;;;32.30;12.32;;;8.10;99.90;;;;;;4981197;28;20058;-82
2022/01/04 04:57:14;;;;;;;36.17;12.63;;;8.00;99.90;;;;;;4998729;28;20042;-82
2022/01/04 04:59:40;;;;;;;39.20;13.32;;;8.00;99.90;;;;;;4998280;28;20046;-83
2022/01/04 05:02:09;;;;;;;36.25;13.18;;;8.10;99.90;;;;;;4979684;28;20054;-82
2022/01/04 05:04:35;;;;;;;37.83;13.85;;;8.00;99.90;;;;;;4998005;28;20657;-82
2022/01/04 05:07:01;;;;;;;46.47;14.65;;;8.10;99.90;;;;;;4995855;28;20054;-82
2022/01/04 05:09:27;;;;;;;40.50;14.48;;;8.10;99.90;;;;;;4996379;28;20048;-82
2022/01/04 05:11:53;;;;;;;43.97;13.52;;;8.00;99.90;;;;;;4997469;28;20046;-83
2022/01/04 05:14:19;;;;;;;47.35;14.57;;;7.90;99.90;;;;;;4996319;28;20082;-82
2022/01/04 05:16:44;;;;;;;42.78;12.38;;;8.00;99.90;;;;;;4995923;28;20038;-82
2022/01/04 05:19:10;;;;;;;37.78;13.60;;;8.00;99.90;;;;;;4995756;28;20050;-83
2022/01/04 05:21:36;;;;;;;32.97;14.25;;;8.00;99.90;;;;;;4962721;28;20106;-84
2022/01/04 05:24:02;;;;;;;35.17;12.73;;;8.00;99.90;;;;;;4997095;28;20053;-83
2022/01/04 05:26:28;;;;;;;36.17;12.63;;;8.10;99.90;;;;;;4997636;28;20471;-83
2022/01/04 05:28:53;;;;;;;33.83;11.90;;;8.10;99.90;;;;;;4996638;28;20145;-83
2022/01/04 05:31:19;;;;;;;32.92;13.23;;;8.00;99.90;;;;;;4997357;28;20058;-83
2022/01/04 05:33:44;;;;;;;32.20;12.82;;;8.10;99.90;;;;;;4997310;28;20049;-84
2022/01/04 05:36:10;;;;;;;37.53;13.93;;;8.10;99.90;;;;;;4997454;28;20124;-82
2022/01/04 05:38:36;;;;;;;31.70;12.48;;;8.10;99.90;;;;;;4998352;28;20056;-83
2022/01/04 05:41:02;;;;;;;37.50;11.80;;;8.10;99.90;;;;;;4997797;28;20074;-83
2022/01/04 05:43:27;;;;;;;42.70;12.98;;;8.00;99.90;;;;;;5007570;28;20052;-83
2022/01/04 05:45:53;;;;;;;38.50;13.98;;;8.00;99.90;;;;;;5006420;28;20076;-83
2022/01/04 05:48:20;;;;;;;32.17;12.25;;;7.90;99.90;;;;;;5009499;28;20058;-83
2022/01/04 05:50:47;;;;;;;45.65;14.25;;;7.90;99.90;;;;;;4995230;28;20061;-83
2022/01/04 05:53:13;;;;;;;35.35;12.13;;;7.80;99.90;;;;;;5001882;28;20106;-83
2022/01/04 05:55:39;;;;;;;42.70;13.80;;;7.80;99.90;;;;;;4984861;28;20057;-82
2022/01/04 05:58:04;;;;;;;32.10;12.15;;;7.80;99.90;;;;;;5000844;28;20046;-83
2022/01/04 06:00:30;;;;;;;52.95;16.05;;;7.70;99.90;;;;;;5000169;28;20105;-83
2022/01/04 06:02:58;;;;;;;46.70;13.85;;;7.70;99.90;;;;;;4998806;28;20092;-83
2022/01/04 06:05:24;;;;;;;37.30;15.13;;;7.70;99.90;;;;;;4999484;28;20753;-83
2022/01/04 06:07:50;;;;;;;47.85;14.38;;;7.60;99.90;;;;;;4998706;28;20132;-83
2022/01/04 06:10:16;;;;;;;43.50;15.68;;;7.70;99.90;;;;;;4998924;28;20061;-83
2022/01/04 06:15:10;;;;;;;40.83;12.27;;;7.80;99.90;;;;;;4981318;28;20052;-82
2022/01/04 06:17:41;;;;;;;35.20;13.27;;;7.70;99.90;;;;;;4998101;28;20053;-83
2022/01/04 06:20:09;;;;;;;35.97;13.35;;;7.70;99.90;;;;;;4998496;28;20050;-83
2022/01/04 06:22:35;;;;;;;41.15;15.00;;;7.60;99.90;;;;;;4999822;28;20030;-82
2022/01/04 06:25:02;;;;;;;49.78;15.52;;;7.70;99.90;;;;;;4999343;28;20226;-83
2022/01/04 06:27:27;;;;;;;40.13;14.40;;;7.70;99.90;;;;;;4997658;28;20062;-83
2022/01/04 06:29:53;;;;;;;44.60;14.20;;;7.70;99.90;;;;;;4997422;28;20061;-83
2022/01/04 06:32:19;;;;;;;47.55;14.48;;;7.70;99.90;;;;;;4980714;28;20074;-84
2022/01/04 06:34:45;;;;;;;52.38;14.95;;;7.70;99.90;;;;;;5001900;28;20092;-82
2022/01/04 06:37:12;;;;;;;55.00;15.18;;;7.70;99.90;;;;;;4968908;28;20042;-83
2022/01/04 06:39:38;;;;;;;50.70;17.20;;;7.70;99.90;;;;;;5004089;28;20074;-83
2022/01/04 06:42:04;;;;;;;42.72;15.20;;;7.30;99.90;;;;;;5002210;28;20121;-83
2022/01/04 06:44:30;;;;;;;42.92;14.25;;;7.70;99.90;;;;;;5002028;28;20042;-83
2022/01/04 06:46:57;;;;;;;40.15;14.07;;;7.70;99.90;;;;;;4984796;28;20124;-82
2022/01/04 06:49:22;;;;;;;44.75;14.88;;;7.70;99.90;;;;;;5000441;28;20120;-83
2022/01/04 06:51:48;;;;;;;40.00;15.02;;;7.70;99.90;;;;;;5000244;28;20061;-82
2022/01/04 06:54:16;;;;;;;38.40;15.18;;;7.70;99.90;;;;;;5001080;28;20057;-83
2022/01/04 06:56:42;;;;;;;48.17;16.45;;;7.80;99.90;;;;;;5002168;28;20073;-82
2022/01/04 06:59:08;;;;;;;44.05;16.85;;;7.70;99.90;;;;;;5001977;28;20587;-82
2022/01/04 07:01:35;;;;;;;33.92;13.50;;;7.70;99.90;;;;;;5001508;28;20043;-83
2022/01/04 07:04:01;;;;;;;33.92;13.60;;;7.70;99.90;;;;;;5002924;28;20169;-83
2022/01/04 07:06:26;;;;;;;37.80;13.60;;;7.70;99.90;;;;;;5001922;28;20106;-83
2022/01/04 07:08:52;;;;;;;31.95;12.88;;;7.70;99.90;;;;;;4985712;28;20118;-82
2022/01/04 07:11:18;;;;;;;30.65;12.05;;;7.70;99.90;;;;;;4987029;28;20042;-83
2022/01/04 07:13:44;;;;;;;31.58;12.60;;;7.70;99.90;;;;;;5003882;28;20098;-82
2022/01/04 07:16:10;;;;;;;28.48;10.00;;;7.70;99.90;;;;;;5002138;28;20069;-83
2022/01/04 07:18:36;;;;;;;36.95;11.65;;;7.70;99.90;;;;;;5001970;28;20065;-83
2022/01/04 07:21:02;;;;;;;33.45;9.85;;;7.70;99.90;;;;;;4983451;28;20053;-83
2022/01/04 07:23:27;;;;;;;27.65;9.73;;;7.60;99.90;;;;;;5001721;28;20058;-83
2022/01/04 07:25:54;;;;;;;21.10;9.40;;;7.60;99.90;;;;;;5005092;28;20137;-83
2022/01/04 07:28:21;;;;;;;27.58;9.85;;;7.60;99.90;;;;;;5002335;28;20058;-83
2022/01/04 07:30:46;;;;;;;31.92;12.00;;;7.60;99.90;;;;;;4986974;28;20073;-82
2022/01/04 07:33:12;;;;;;;36.92;10.02;;;8.70;99.90;;;;;;5006028;28;20050;-83
2022/01/04 07:35:38;;;;;;;28.02;10.32;;;7.50;99.90;;;;;;5004880;28;20046;-82
2022/01/04 07:38:04;;;;;;;38.60;10.98;;;7.50;99.90;;;;;;5003528;28;20161;-83
2022/01/04 07:40:29;;;;;;;25.92;10.50;;;7.50;99.90;;;;;;5005415;28;20050;-82
2022/01/04 07:42:59;;;;;;;24.55;10.43;;;7.50;99.90;;;;;;4988982;28;20191;-83
2022/01/04 07:45:28;;;;;;;35.97;11.77;;;7.60;99.90;;;;;;5003115;28;20042;-82
2022/01/04 07:47:54;;;;;;;35.50;10.45;;;7.50;99.90;;;;;;5014460;28;20054;-83
2022/01/04 07:50:19;;;;;;;36.50;13.05;;;7.50;99.90;;;;;;5019606;28;20073;-83
2022/01/04 07:52:45;;;;;;;37.55;11.57;;;7.50;99.90;;;;;;5018098;28;20057;-84
2022/01/04 07:55:11;;;;;;;32.28;13.48;;;7.60;99.90;;;;;;5020302;28;20050;-84
2022/01/04 07:57:36;;;;;;;34.78;13.93;;;7.60;99.90;;;;;;5021713;28;20223;-83
2022/01/04 08:00:04;;;;;;;34.75;12.98;;;7.60;99.90;;;;;;5026720;28;20037;-84
2022/01/04 08:02:30;;;;;;;33.10;13.18;;;7.60;99.90;;;;;;5027797;28;20045;-83
2022/01/04 08:04:56;;;;;;;32.55;13.35;;;7.60;99.90;;;;;;4999248;28;20050;-84
2022/01/04 08:07:21;;;;;;;28.65;13.23;;;7.60;99.90;;;;;;4997179;28;20053;-83
2022/01/04 08:09:47;;;;;;;30.98;13.68;;;7.70;99.90;;;;;;5001315;28;20160;-83
2022/01/04 08:12:13;;;;;;;29.10;13.80;;;7.70;99.90;;;;;;5012994;28;20057;-83
2022/01/04 08:14:39;;;;;;;38.17;13.98;;;7.60;99.90;;;;;;5008182;28;20048;-84
2022/01/04 08:17:05;;;;;;;37.78;14.00;;;7.70;99.90;;;;;;5005229;28;20752;-86
2022/01/04 08:19:30;;;;;;;26.95;11.93;;;7.70;99.90;;;;;;5007173;28;20042;-85
2022/01/04 08:21:56;;;;;;;28.85;11.18;;;7.60;99.90;;;;;;4975398;28;20046;-86
2022/01/04 08:24:21;;;;;;;25.25;9.93;;;8.20;99.90;;;;;;4985649;28;20085;-85
2022/01/04 08:26:47;;;;;;;20.35;6.22;;;7.40;99.90;;;;;;4986032;28;20050;-86
2022/01/04 08:29:13;;;;;;;18.05;4.32;;;7.20;99.90;;;;;;4982778;28;20054;-85
2022/01/04 08:31:38;;;;;;;9.23;4.05;;;7.10;99.90;;;;;;4974979;28;20073;-85
2022/01/04 08:34:04;;;;;;;8.15;2.67;;;7.00;99.90;;;;;;5015356;28;20056;-84
2022/01/04 08:36:30;;;;;;;12.75;2.50;;;6.90;99.90;;;;;;4978366;28;20074;-85
2022/01/04 08:38:56;;;;;;;10.45;3.30;;;6.80;99.90;;;;;;5018197;28;20037;-84
2022/01/04 08:41:22;;;;;;;9.40;3.17;;;6.70;99.90;;;;;;5004229;28;20022;-84
2022/01/04 08:43:48;;;;;;;15.25;3.00;;;6.60;99.90;;;;;;5002904;28;20089;-84
2022/01/04 08:46:14;;;;;;;11.07;3.25;;;6.60;99.90;;;;;;4996703;28;20114;-84
2022/01/04 08:48:39;;;;;;;10.93;2.78;;;7.70;99.90;;;;;;5019614;28;20117;-84
2022/01/04 08:51:05;;;;;;;18.00;3.08;;;6.50;99.90;;;;;;5020864;28;20041;-84
2022/01/04 08:53:31;;;;;;;13.60;3.83;;;6.50;99.90;;;;;;5011546;28;20052;-84
2022/01/04 08:56:01;;;;;;;10.20;3.05;;;6.50;99.90;;;;;;5029651;28;20109;-84
2022/01/04 08:58:27;;;;;;;11.55;3.42;;;6.50;99.90;;;;;;5022219;28;20602;-83
2022/01/04 09:00:53;;;;;;;15.52;4.15;;;6.60;99.90;;;;;;5020687;28;20077;-83
2022/01/04 09:03:19;;;;;;;16.63;3.55;;;6.60;99.90;;;;;;5000934;28;20037;-84
2022/01/04 09:05:44;;;;;;;18.80;4.68;;;6.60;99.90;;;;;;5019067;28;20033;-83
2022/01/04 09:08:10;;;;;;;12.48;3.45;;;6.60;99.90;;;;;;5025252;28;20029;-84
2022/01/04 09:10:36;;;;;;;12.65;4.13;;;6.60;99.90;;;;;;5027298;28;20068;-84
2022/01/04 09:13:11;;;;;;;17.55;4.43;;;6.60;99.90;;;;;;5028229;28;20034;-84
2022/01/04 09:20:54;;;;;;;8.18;2.88;;;6.60;99.90;;;;;;5025254;28;20057;-84
2022/01/04 09:23:21;;;;;;;14.75;3.88;;;6.60;99.90;;;;;;5007843;28;20030;-83
2022/01/04 09:25:48;;;;;;;15.70;3.72;;;6.70;99.90;;;;;;5011523;28;20533;-83
2022/01/04 09:28:14;;;;;;;10.45;3.50;;;6.70;99.90;;;;;;5009308;28;20352;-84
2022/01/04 09:30:41;;;;;;;18.95;4.10;;;6.80;99.90;;;;;;5028230;28;20034;-83
2022/01/04 09:33:07;;;;;;;22.92;3.95;;;6.80;99.90;;;;;;4979639;28;20097;-84
2022/01/04 09:35:37;;;;;;;8.10;2.13;;;6.70;99.90;;;;;;5008481;28;20077;-83
2022/01/04 09:38:05;;;;;;;5.93;1.52;;;7.10;99.90;;;;;;5009595;28;20120;-84
2022/01/04 09:40:33;;;;;;;11.13;2.22;;;6.70;99.90;;;;;;4991305;28;20053;-84
2022/01/04 09:43:00;;;;;;;11.27;2.53;;;6.60;99.90;;;;;;5006739;28;20069;-83
2022/01/04 09:45:26;;;;;;;6.78;1.27;;;6.60;99.90;;;;;;5005749;28;20062;-83
2022/01/04 09:47:51;;;;;;;10.27;2.45;;;6.60;99.90;;;;;;5006220;28;20050;-83
2022/01/04 09:50:17;;;;;;;12.77;2.03;;;6.60;99.90;;;;;;5005338;28;20043;-83
2022/01/04 09:52:49;;;;;;;7.32;1.23;;;6.60;99.90;;;;;;5006026;28;20042;-83
2022/01/04 09:55:15;;;;;;;6.45;1.33;;;6.60;99.90;;;;;;5010638;28;20403;-83
2022/01/04 09:57:44;;;;;;;5.50;1.60;;;6.60;99.90;;;;;;5029050;28;20364;-83
2022/01/04 10:00:14;;;;;;;17.70;2.03;;;6.60;99.90;;;;;;5010588;28;20046;-83
2022/01/04 10:02:40;;;;;;;7.80;1.70;;;6.60;99.90;;;;;;5028789;28;20042;-83
2022/01/04 10:05:19;;;;;;;10.98;1.52;;;6.60;99.90;;;;;;5008262;28;20053;-83
2022/01/04 10:07:46;;;;;;;6.22;1.25;;;6.50;99.90;;;;;;5023527;28;20046;-83
2022/01/04 10:10:14;;;;;;;9.48;1.48;;;6.50;99.90;;;;;;5026388;28;20084;-82
2022/01/04 10:13:01;;;;;;;8.98;1.70;;;6.50;99.90;;;;;;5009497;28;20068;-83
2022/01/04 10:15:38;;;;;;;11.02;2.22;;;6.50;99.90;;;;;;5027028;28;20062;-83
2022/01/04 10:18:23;;;;;;;7.53;1.50;;;6.50;99.90;;;;;;5009955;28;20061;-83
2022/01/04 10:21:02;;;;;;;7.28;2.10;;;6.40;99.90;;;;;;5008124;28;20057;-83
2022/01/04 10:23:29;;;;;;;5.10;1.20;;;6.30;99.90;;;;;;5016154;28;20046;-83
2022/01/04 10:26:03;;;;;;;7.68;1.10;;;6.70;99.90;;;;;;5029457;28;20049;-83
2022/01/04 10:28:35;;;;;;;4.07;0.95;;;6.30;99.90;;;;;;5029309;28;20138;-83
2022/01/04 10:31:10;;;;;;;11.77;1.88;;;6.20;99.90;;;;;;5014932;28;20052;-83
2022/01/04 10:33:36;;;;;;;5.60;1.23;;;6.20;99.90;;;;;;5013258;28;20041;-83
2022/01/04 10:36:13;;;;;;;9.25;1.63;;;6.20;99.90;;;;;;5028173;28;20044;-83
2022/01/04 10:38:41;;;;;;;18.30;2.85;;;6.20;99.90;;;;;;5026401;28;20050;-83
2022/01/04 10:41:11;;;;;;;6.18;1.10;;;6.10;99.90;;;;;;5011481;28;20045;-83
2022/01/04 10:43:41;;;;;;;3.67;0.75;;;5.90;99.90;;;;;;5021884;28;20084;-83
2022/01/04 10:46:07;;;;;;;8.27;1.40;;;5.80;99.90;;;;;;5022759;28;20065;-84
2022/01/04 10:48:39;;;;;;;8.02;1.75;;;5.90;99.90;;;;;;5022884;28;20053;-84
2022/01/04 10:51:08;;;;;;;6.93;1.25;;;5.90;99.90;;;;;;5005264;28;20045;-84
2022/01/04 10:53:57;;;;;;;6.57;1.10;;;5.70;99.90;;;;;;5021513;28;20042;-84
2022/01/04 10:56:31;;;;;;;5.80;1.00;;;5.70;99.90;;;;;;5021692;28;20049;-82
2022/01/04 10:58:59;;;;;;;8.80;1.58;;;5.60;99.90;;;;;;5022377;28;20038;-82
2022/01/04 11:01:29;;;;;;;12.40;1.65;;;5.50;99.90;;;;;;5025295;28;20128;-81
2022/01/04 11:04:00;;;;;;;2.38;0.80;;;5.40;99.90;;;;;;5026833;28;20034;-82
2022/01/04 11:06:27;;;;;;;7.57;0.80;;;5.40;99.90;;;;;;5024962;28;20056;-82
2022/01/04 11:08:53;;;;;;;2.90;0.70;;;5.40;99.90;;;;;;5009366;28;20161;-82
2022/01/04 11:11:23;;;;;;;7.78;1.02;;;5.30;99.90;;;;;;5026491;28;20061;-82
2022/01/04 11:13:51;;;;;;;6.40;1.00;;;5.40;99.90;;;;;;5010225;28;20057;-82
2022/01/04 11:16:18;;;;;;;4.93;0.60;;;5.40;99.90;;;;;;5006835;28;20050;-82
2022/01/04 11:18:50;;;;;;;3.63;0.68;;;5.50;99.90;;;;;;5023313;28;20161;-82
2022/01/04 11:21:18;;;;;;;11.43;0.95;;;5.50;99.90;;;;;;4989044;28;20465;-82
2022/01/04 11:23:46;;;;;;;5.43;0.80;;;5.60;99.90;;;;;;5022670;28;20053;-82
2022/01/04 11:26:14;;;;;;;8.20;1.25;;;5.60;99.90;;;;;;5021478;28;20046;-83
2022/01/04 11:28:45;;;;;;;7.38;0.70;;;5.70;99.90;;;;;;5019710;28;20050;-82
2022/01/04 11:31:25;;;;;;;9.82;1.15;;;5.70;99.90;;;;;;5026481;28;20050;-82
2022/01/04 11:33:56;;;;;;;9.40;1.20;;;5.70;99.90;;;;;;5024924;28;20105;-82
2022/01/04 11:36:24;;;;;;;12.13;0.80;;;5.70;99.90;;;;;;5023267;28;20065;-82
2022/01/04 11:38:49;;;;;;;8.52;1.17;;;5.70;99.90;;;;;;5024034;28;20038;-82
2022/01/04 11:41:24;;;;;;;6.80;1.25;;;5.60;99.90;;;;;;5006694;28;20050;-82
2022/01/04 11:43:52;;;;;;;2.15;0.47;;;5.60;99.90;;;;;;5027068;28;20037;-82
2022/01/04 11:46:35;;;;;;;6.72;1.02;;;5.50;99.90;;;;;;5013090;28;20096;-82
2022/01/04 11:49:10;;;;;;;7.60;0.75;;;5.40;99.90;;;;;;5021426;28;20046;-82
2022/01/04 11:51:38;;;;;;;3.30;0.40;;;5.30;99.90;;;;;;5029074;28;20022;-82
2022/01/04 11:54:15;;;;;;;1.85;0.50;;;5.20;99.90;;;;;;5027144;28;20081;-82
2022/01/04 11:56:54;;;;;;;4.38;0.65;;;4.90;99.90;;;;;;5028223;28;20053;-82
2022/01/04 11:59:38;;;;;;;3.80;0.50;;;4.80;99.90;;;;;;5029605;28;20034;-82
2022/01/04 12:02:38;;;;;;;3.08;0.70;;;4.80;99.90;;;;;;5021140;28;20091;-82
2022/01/04 12:05:24;;;;;;;3.38;0.70;;;4.70;99.90;;;;;;4994082;28;20062;-82
2022/01/04 12:07:55;;;;;;;6.13;0.70;;;4.60;99.90;;;;;;5009543;28;20061;-82
2022/01/04 12:10:20;;;;;;;9.68;0.77;;;4.60;99.90;;;;;;5028447;28;20094;-82
2022/01/04 12:12:56;;;;;;;8.93;2.05;;;4.60;99.90;;;;;;5011813;28;20034;-82
2022/01/04 12:15:34;;;;;;;7.65;0.80;;;4.70;99.90;;;;;;5011624;28;20050;-81
2022/01/04 12:18:07;;;;;;;3.70;0.55;;;4.80;99.90;;;;;;5008256;28;20110;-82
2022/01/04 12:20:42;;;;;;;6.57;1.05;;;4.90;99.90;;;;;;5010258;28;20025;-82
2022/01/04 12:23:25;;;;;;;7.75;0.73;;;5.10;99.90;;;;;;5012143;28;20049;-81
2022/01/04 12:26:11;;;;;;;8.38;0.98;;;5.20;99.90;;;;;;5009196;28;20532;-82
2022/01/04 12:28:38;;;;;;;3.00;1.05;;;5.30;99.90;;;;;;5022209;28;20064;-82
2022/01/04 12:31:12;;;;;;;7.05;0.80;;;5.30;99.90;;;;;;5023222;28;20033;-82
2022/01/04 12:33:40;;;;;;;4.45;0.95;;;5.40;99.90;;;;;;5024469;28;20045;-82
2022/01/04 12:36:06;;;;;;;3.55;0.70;;;5.40;99.90;;;;;;5030044;28;20081;-82
2022/01/04 12:38:32;;;;;;;6.70;1.23;;;5.40;99.90;;;;;;5044249;28;20053;-82
2022/01/04 12:40:58;;;;;;;6.82;0.82;;;5.40;99.90;;;;;;5042787;28;20050;-82
2022/01/04 12:43:24;;;;;;;9.20;1.15;;;5.50;99.90;;;;;;5023831;28;20033;-82
2022/01/04 12:46:03;;;;;;;7.70;1.10;;;5.50;99.90;;;;;;5025827;28;20055;-82
2022/01/04 12:48:49;;;;;;;8.20;1.35;;;5.60;99.90;;;;;;5043265;28;20562;-82
2022/01/04 12:51:25;;;;;;;4.72;0.90;;;5.60;99.90;;;;;;5027834;28;20045;-82
2022/01/04 12:53:52;;;;;;;5.25;1.02;;;5.60;99.90;;;;;;5030140;28;20051;-82
2022/01/04 12:56:18;;;;;;;5.95;1.23;;;5.60;99.90;;;;;;5042208;28;20053;-82
2022/01/04 12:58:43;;;;;;;7.93;1.45;;;5.50;99.90;;;;;;5023446;28;20107;-82
2022/01/04 13:01:11;;;;;;;7.35;1.00;;;5.50;99.90;;;;;;5040665;28;20613;-82
2022/01/04 13:03:36;;;;;;;5.07;0.90;;;5.40;99.90;;;;;;5026622;28;20052;-82